Time;durP1;ratioP1;P1;durP2;ratioP2;P2;SDS_P1;SDS_P2;PMS_P1;PMS_P2;Temp;Humidity;BMP_temperature;BMP_pressure;BME280_temperature;BME280_humidity;BME280_pressure;Samples;Min_cycle;Max_cycle;Signal;HPM_P1;HPM_P2
2023/04/09 00:01:50;;;;;;;52.83;37.60;;;7.70;99.90;;;;;;4938177;29;37816;-81
2023/04/09 00:04:16;;;;;;;54.37;38.00;;;7.70;99.90;;;;;;4914953;29;37523;-81
2023/04/09 00:06:46;;;;;;;53.20;36.60;;;7.70;99.90;;;;;;4914910;29;37926;-81
2023/04/09 00:09:20;;;;;;;58.37;40.53;;;7.70;99.90;;;;;;4939846;29;39294;-81
2023/04/09 00:11:46;;;;;;;60.37;39.27;;;7.60;99.90;;;;;;4918110;29;37516;-81
2023/04/09 00:14:15;;;;;;;58.43;38.60;;;7.60;99.90;;;;;;4926244;29;38580;-81
2023/04/09 00:16:47;;;;;;;57.10;39.13;;;7.50;99.90;;;;;;4935492;29;39297;-82
2023/04/09 00:19:15;;;;;;;57.08;40.28;;;7.60;99.90;;;;;;4931235;29;38401;-81
2023/04/09 00:22:03;;;;;;;68.90;45.07;;;7.60;99.90;;;;;;4921397;29;36530;-80
2023/04/09 00:25:07;;;;;;;68.87;44.93;;;7.60;99.90;;;;;;4924774;29;45910;-82
2023/04/09 00:27:33;;;;;;;56.63;39.90;;;7.60;99.90;;;;;;4932144;29;49153;-82
2023/04/09 00:30:16;;;;;;;61.90;42.77;;;7.60;99.90;;;;;;4921341;29;39703;-82
2023/04/09 00:32:53;;;;;;;61.53;42.43;;;7.50;99.90;;;;;;4917177;29;47116;-82
2023/04/09 00:35:20;;;;;;;69.23;45.53;;;7.50;99.90;;;;;;4907559;29;39397;-81
2023/04/09 00:37:56;;;;;;;67.60;44.47;;;7.60;99.90;;;;;;4923314;29;38825;-81
2023/04/09 00:40:27;;;;;;;65.13;43.00;;;7.50;99.90;;;;;;4923444;29;38596;-82
2023/04/09 00:43:03;;;;;;;61.07;41.60;;;7.50;99.90;;;;;;4923735;29;37781;-82
2023/04/09 00:50:45;;;;;;;69.67;43.67;;;7.50;99.90;;;;;;5459448;23;20033;-80
2023/04/09 00:53:11;;;;;;;64.40;43.40;;;7.40;99.90;;;;;;4941924;23;37963;-80
2023/04/09 00:55:39;;;;;;;71.97;47.37;;;7.40;99.90;;;;;;4934482;28;37231;-82
2023/04/09 00:58:13;;;;;;;69.03;45.00;;;7.30;99.90;;;;;;5181849;23;40260;31
2023/04/09 01:06:23;;;;;;;68.77;47.30;;;7.20;99.90;;;;;;5769519;23;20052;-81
2023/04/09 01:09:13;;;;;;;65.23;43.00;;;7.10;99.90;;;;;;4940474;28;47614;-81
2023/04/09 01:12:26;;;;;;;63.50;43.67;;;7.00;99.90;;;;;;4942423;28;48306;-80
2023/04/09 01:15:10;;;;;;;68.22;46.40;;;7.00;99.90;;;;;;4958390;28;48981;-82
2023/04/09 01:18:12;;;;;;;72.67;47.47;;;6.90;99.90;;;;;;4936916;29;47440;-82
2023/04/09 01:20:56;;;;;;;63.03;43.30;;;6.90;99.90;;;;;;4943418;28;48330;-83
2023/04/09 01:23:46;;;;;;;63.43;41.73;;;6.90;99.90;;;;;;5003951;23;38646;-82
2023/04/09 01:26:50;;;;;;;62.63;42.43;;;6.80;99.90;;;;;;4922345;29;37437;-80
2023/04/09 01:29:34;;;;;;;67.20;44.10;;;6.80;99.90;;;;;;4933697;29;41305;-82
2023/04/09 01:32:06;;;;;;;69.30;45.27;;;6.80;99.90;;;;;;4925485;29;38771;-82
2023/04/09 01:34:33;;;;;;;65.30;44.03;;;6.80;99.90;;;;;;4923571;29;48387;-82
2023/04/09 01:40:17;;;;;;;69.47;44.77;;;6.80;99.90;;;;;;4934160;28;49611;-79
2023/04/09 01:45:20;;;;;;;72.60;48.50;;;6.80;99.90;;;;;;4933670;23;20037;-83
2023/04/09 01:48:06;;;;;;;60.50;41.60;;;6.90;99.90;;;;;;4931373;29;38583;-81
2023/04/09 01:50:38;;;;;;;74.72;47.90;;;6.90;99.90;;;;;;4904217;28;47895;-83
2023/04/09 01:55:57;;;;;;;74.47;48.37;;;6.90;99.90;;;;;;4965168;28;20198;-80
2023/04/09 01:58:27;;;;;;;67.13;45.20;;;6.90;99.90;;;;;;4933629;28;36477;-83
2023/04/09 02:01:29;;;;;;;74.80;50.20;;;7.00;99.90;;;;;;4938455;28;39288;-83
2023/04/09 02:14:31;;;;;;;82.17;50.63;;;7.20;99.90;;;;;;4980031;23;20036;-82
2023/04/09 02:17:01;;;;;;;83.70;51.67;;;7.20;99.90;;;;;;4962536;28;38983;-82
2023/04/09 02:27:15;;;;;;;75.50;48.57;;;7.20;99.90;;;;;;5071400;23;20040;-80
2023/04/09 02:29:44;;;;;;;71.77;45.87;;;7.10;99.90;;;;;;4978635;28;38215;-80
2023/04/09 02:32:11;;;;;;;80.30;46.87;;;7.10;99.90;;;;;;4961299;28;38165;-82
2023/04/09 02:34:37;;;;;;;68.43;46.53;;;7.20;99.90;;;;;;4967556;28;38982;-82
2023/04/09 02:37:04;;;;;;;80.57;49.20;;;7.30;99.90;;;;;;5043782;23;39914;-79
2023/04/09 02:42:47;;;;;;;68.37;45.70;;;7.30;99.90;;;;;;5053611;23;20035;-81
2023/04/09 02:51:07;;;;;;;68.67;43.60;;;7.60;99.90;;;;;;4956620;28;20046;-78
2023/04/09 02:56:11;;;;;;;66.97;45.73;;;7.80;99.90;;;;;;4937787;23;20043;-80
2023/04/09 03:03:49;;;;;;;75.43;47.60;;;8.10;99.90;;;;;;5247713;23;20050;-82
2023/04/09 03:09:21;;;;;;;71.60;46.13;;;8.30;99.90;;;;;;6026072;23;21245;-81
2023/04/09 03:17:40;;;;;;;60.10;42.17;;;8.60;99.90;;;;;;6039960;23;20023;31
2023/04/09 03:30:35;;;;;;;63.43;42.33;;;8.90;99.90;;;;;;5583095;23;20063;-83
2023/04/09 03:33:34;;;;;;;59.00;41.50;;;8.90;99.90;;;;;;4945472;28;37835;-81
2023/04/09 04:01:03;;;;;;;51.28;37.58;;;9.20;99.90;;;;;;6049782;23;20025;31
2023/04/09 04:06:36;;;;;;;50.22;38.90;;;9.20;99.90;;;;;;6077546;23;20033;-84
2023/04/09 04:17:10;;;;;;;56.23;41.40;;;9.20;99.90;;;;;;5481754;23;20032;-84
2023/04/09 04:56:30;;;;;;;59.53;41.73;;;9.30;99.90;;;;;;5974749;23;20024;-81
2023/04/09 05:40:48;;;;;;;44.57;34.67;;;9.40;99.90;;;;;;5670534;23;20035;-83
2023/04/09 05:51:03;;;;;;;49.20;36.73;;;9.50;99.90;;;;;;5874282;23;20020;-82
2023/04/09 05:56:32;;;;;;;45.60;35.17;;;9.60;99.90;;;;;;5481734;23;20056;-83
2023/04/09 05:59:01;;;;;;;47.10;36.15;;;9.60;99.90;;;;;;5415925;23;38758;-82
2023/04/09 06:19:40;;;;;;;48.38;34.47;;;9.70;99.90;;;;;;5738783;23;20036;-84
2023/04/09 06:22:09;;;;;;;48.53;35.07;;;9.80;99.90;;;;;;5052620;23;37364;-81
2023/04/09 06:24:36;;;;;;;46.53;33.60;;;9.90;99.90;;;;;;5149077;23;40232;-81
2023/04/09 06:27:08;;;;;;;44.00;32.97;;;9.90;99.90;;;;;;4947607;28;39066;-83
2023/04/09 06:29:34;;;;;;;51.85;35.83;;;10.00;99.90;;;;;;5809054;23;48428;-81
2023/04/09 06:32:05;;;;;;;45.97;32.87;;;10.00;99.90;;;;;;5602128;23;37423;-83
2023/04/09 06:35:04;;;;;;;48.58;34.53;;;10.00;99.90;;;;;;5732952;23;48474;31
2023/04/09 06:40:07;;;;;;;47.83;34.55;;;10.10;99.90;;;;;;5542320;23;20051;-82
2023/04/09 06:45:32;;;;;;;48.28;34.05;;;10.10;99.90;;;;;;5051049;23;20031;-82
2023/04/09 06:51:07;;;;;;;47.50;32.97;;;10.20;99.90;;;;;;5112348;23;20042;-84
2023/04/09 06:56:11;;;;;;;45.70;31.83;;;10.20;99.90;;;;;;5776040;23;20050;-83
2023/04/09 07:03:50;;;;;;;51.22;34.15;;;10.20;99.90;;;;;;5519122;23;20047;-83
2023/04/09 07:06:18;;;;;;;44.17;31.60;;;10.20;99.90;;;;;;5190181;23;38488;-82
2023/04/09 07:08:54;;;;;;;51.10;35.90;;;10.30;99.90;;;;;;4944909;28;39120;-84
2023/04/09 07:11:52;;;;;;;55.03;37.55;;;10.30;99.90;;;;;;4907070;28;37996;-82
2023/04/09 07:25:43;;;;;;;50.67;34.03;;;10.30;99.90;;;;;;5161708;23;20044;-83
2023/04/09 07:33:27;;;;;;;53.95;35.15;;;10.40;99.90;;;;;;5241625;23;20041;-82
2023/04/09 07:41:05;;;;;;;64.32;39.70;;;10.60;99.90;;;;;;5649813;23;20063;-82
2023/04/09 07:59:07;;;;;;;61.15;37.70;;;10.70;99.90;;;;;;5942641;23;20037;-82
2023/04/09 08:04:11;;;;;;;70.18;41.05;;;10.70;99.90;;;;;;5826947;23;20029;-82
2023/04/09 08:20:09;;;;;;;74.32;42.55;;;10.70;99.90;;;;;;5183097;23;20044;-81
2023/04/09 08:22:39;;;;;;;121.07;62.42;;;10.70;99.90;;;;;;4941680;28;39916;-83
2023/04/09 08:25:18;;;;;;;100.32;53.67;;;10.80;99.90;;;;;;5181246;23;40033;-81
2023/04/09 08:27:44;;;;;;;77.40;45.72;;;10.90;99.90;;;;;;5284259;23;37528;-83
2023/04/09 08:33:00;;;;;;;71.38;44.65;;;10.90;99.90;;;;;;5337174;23;20047;-83
2023/04/09 08:35:37;;;;;;;75.97;46.38;;;10.90;99.90;;;;;;4982220;23;39045;-84
2023/04/09 08:54:25;;;;;;;76.78;46.05;;;11.20;99.90;;;;;;5559158;23;20042;-81
2023/04/09 09:03:04;;;;;;;63.58;39.72;;;11.30;99.90;;;;;;5388024;23;20045;-81
2023/04/09 09:05:42;;;;;;;64.78;39.58;;;11.40;99.90;;;;;;4990753;23;48945;-81
2023/04/09 09:08:11;;;;;;;58.55;36.53;;;11.50;99.90;;;;;;4920087;28;40020;-80
2023/04/09 09:13:19;;;;;;;58.97;37.72;;;11.60;99.90;;;;;;4913053;23;20044;-80
2023/04/09 09:15:46;;;;;;;65.25;39.63;;;11.50;99.90;;;;;;5465975;23;38635;-81
2023/04/09 09:18:37;;;;;;;65.18;41.05;;;11.50;99.90;;;;;;4962736;28;38500;-82
2023/04/09 09:21:14;;;;;;;65.00;40.65;;;11.60;99.90;;;;;;4960979;28;37432;-80
2023/04/09 09:23:43;;;;;;;63.38;38.28;;;11.60;99.90;;;;;;4963252;28;38727;-82
2023/04/09 09:26:12;;;;;;;61.90;39.15;;;11.70;99.90;;;;;;4960143;28;35721;-82
2023/04/09 09:28:38;;;;;;;71.65;41.85;;;11.90;99.90;;;;;;4961489;28;37566;-84
2023/04/09 09:31:11;;;;;;;61.92;39.95;;;11.90;99.90;;;;;;4957942;28;36931;-81
2023/04/09 09:33:38;;;;;;;63.50;39.75;;;11.80;99.90;;;;;;4949981;28;38990;-81
2023/04/09 09:36:04;;;;;;;69.25;41.70;;;12.00;99.90;;;;;;4940401;28;37721;-82
2023/04/09 09:38:31;;;;;;;68.55;41.08;;;12.20;99.90;;;;;;4930517;28;37417;-81
2023/04/09 09:40:57;;;;;;;66.75;41.15;;;12.20;99.90;;;;;;4948218;28;36584;-83
2023/04/09 09:43:39;;;;;;;70.38;42.08;;;12.10;99.90;;;;;;4927559;28;38992;-81
2023/04/09 09:46:06;;;;;;;63.67;40.30;;;12.20;99.90;;;;;;4928306;28;38062;-82
2023/04/09 09:48:32;;;;;;;63.85;40.47;;;12.30;99.90;;;;;;4933265;28;37407;-81
2023/04/09 09:51:02;;;;;;;63.78;39.22;;;12.40;99.90;;;;;;4935590;28;36172;-81
2023/04/09 09:53:31;;;;;;;63.95;39.78;;;12.60;99.90;;;;;;4933283;28;46956;-82
2023/04/09 09:55:59;;;;;;;63.38;39.53;;;12.60;99.90;;;;;;4951731;28;39435;-81
2023/04/09 09:58:36;;;;;;;64.50;39.88;;;12.60;99.90;;;;;;4956704;28;38003;-84
2023/04/09 10:01:12;;;;;;;63.22;39.25;;;12.50;99.90;;;;;;4948622;28;37533;-83
2023/04/09 10:03:43;;;;;;;61.90;39.67;;;12.60;99.90;;;;;;4928582;28;39439;-84
2023/04/09 10:06:10;;;;;;;63.53;39.35;;;12.60;99.90;;;;;;4927212;28;40388;-84
2023/04/09 10:08:39;;;;;;;57.17;38.47;;;12.60;99.90;;;;;;4950164;28;38096;-83
2023/04/09 10:11:06;;;;;;;61.03;40.40;;;12.70;99.90;;;;;;4922318;28;36656;-85
2023/04/09 10:13:47;;;;;;;61.42;39.58;;;12.90;99.90;;;;;;4925900;28;39239;-84
2023/04/09 10:16:15;;;;;;;53.85;36.53;;;12.70;99.90;;;;;;4922207;28;38982;-85
2023/04/09 10:18:42;;;;;;;57.17;37.85;;;13.00;99.90;;;;;;4947562;28;38870;-85
2023/04/09 10:21:34;;;;;;;60.85;39.97;;;13.70;99.90;;;;;;4939877;28;37310;-85
2023/04/09 10:24:04;;;;;;;57.05;37.58;;;13.90;99.90;;;;;;4933930;28;39191;-86
2023/04/09 10:26:35;;;;;;;55.33;38.08;;;13.70;99.90;;;;;;4943107;28;48293;-84
2023/04/09 10:29:15;;;;;;;59.40;39.40;;;13.70;99.90;;;;;;4925072;28;38299;-81
2023/04/09 10:31:51;;;;;;;53.55;38.25;;;14.00;99.90;;;;;;4921781;28;47153;-80
2023/04/09 10:34:23;;;;;;;54.60;36.88;;;14.00;99.90;;;;;;4928676;28;39450;-83
2023/04/09 10:36:59;;;;;;;54.20;38.08;;;13.80;99.90;;;;;;4917167;28;39596;-86
2023/04/09 10:39:31;;;;;;;52.42;37.08;;;13.70;99.90;;;;;;4946619;28;38008;-81
2023/04/09 10:42:06;;;;;;;61.55;40.38;;;14.10;99.90;;;;;;4926764;28;36580;-78
2023/04/09 10:44:37;;;;;;;53.55;39.33;;;14.60;99.90;;;;;;4933896;28;48493;-83
2023/04/09 10:47:05;;;;;;;56.00;38.88;;;14.80;99.90;;;;;;4923426;28;38795;-80
2023/04/09 10:49:39;;;;;;;54.20;38.35;;;14.60;99.90;;;;;;4945081;28;37240;-74
2023/04/09 10:52:10;;;;;;;52.45;37.85;;;14.50;99.90;;;;;;4938087;28;37339;-76
2023/04/09 10:54:45;;;;;;;51.95;38.95;;;14.70;99.90;;;;;;4939540;28;38470;-80
2023/04/09 10:57:12;;;;;;;54.17;39.22;;;14.40;99.90;;;;;;4939806;28;38826;-80
2023/04/09 10:59:49;;;;;;;52.50;38.85;;;14.40;99.90;;;;;;4918023;28;37621;-80
2023/04/09 11:02:30;;;;;;;50.45;37.80;;;14.70;99.90;;;;;;4941556;28;37779;-78
2023/04/09 11:05:15;;;;;;;52.03;39.88;;;14.80;99.90;;;;;;4936097;28;39568;-80
2023/04/09 11:07:46;;;;;;;51.08;38.25;;;14.90;99.90;;;;;;4943825;28;48579;-82
2023/04/09 11:10:12;;;;;;;50.67;38.35;;;14.80;99.90;;;;;;4945071;28;38592;-81
2023/04/09 11:12:38;;;;;;;49.28;37.17;;;14.50;99.90;;;;;;4943951;28;37520;-80
2023/04/09 11:15:05;;;;;;;44.80;35.53;;;14.70;99.90;;;;;;4938891;28;38730;-80
2023/04/09 11:17:35;;;;;;;48.03;37.40;;;15.10;99.90;;;;;;4934003;28;38268;-79
2023/04/09 11:20:02;;;;;;;45.92;35.30;;;15.10;99.90;;;;;;4937913;28;37888;-79
2023/04/09 11:22:28;;;;;;;44.33;35.38;;;14.80;99.90;;;;;;4922609;28;39094;-80
2023/04/09 11:24:55;;;;;;;46.17;34.90;;;14.80;99.90;;;;;;4952975;28;38829;-80
2023/04/09 11:27:21;;;;;;;49.42;36.38;;;14.90;99.90;;;;;;4942384;28;39166;-81
2023/04/09 11:29:47;;;;;;;44.10;33.22;;;15.10;99.90;;;;;;4942003;28;38835;-80
2023/04/09 11:32:13;;;;;;;44.83;35.42;;;15.20;99.90;;;;;;4946781;28;37727;-80
2023/04/09 11:34:39;;;;;;;43.20;33.00;;;15.30;99.90;;;;;;4948732;28;38693;-81
2023/04/09 11:37:08;;;;;;;43.90;34.10;;;15.40;99.90;;;;;;4933757;28;38406;-81
2023/04/09 11:39:37;;;;;;;45.97;35.28;;;15.60;99.90;;;;;;4930270;28;37721;-79
2023/04/09 11:42:03;;;;;;;47.05;36.00;;;15.40;99.90;;;;;;4949435;28;37781;-83
2023/04/09 11:44:29;;;;;;;42.15;32.90;;;15.50;99.90;;;;;;4947981;28;38942;-83
2023/04/09 11:46:57;;;;;;;41.90;33.33;;;15.80;99.90;;;;;;4955087;28;38816;-83
2023/04/09 11:49:24;;;;;;;39.47;31.60;;;15.70;99.90;;;;;;4922515;28;39265;-83
2023/04/09 11:51:50;;;;;;;38.38;30.90;;;15.80;99.90;;;;;;4935947;28;38360;-82
2023/04/09 11:54:17;;;;;;;38.90;31.35;;;16.00;99.90;;;;;;4936419;28;38556;-83
2023/04/09 11:56:43;;;;;;;43.53;33.10;;;15.90;99.90;;;;;;4931976;28;37858;-80
2023/04/09 11:59:12;;;;;;;44.80;33.53;;;16.00;99.90;;;;;;4929894;28;37289;-81
2023/04/09 12:01:39;;;;;;;40.60;32.35;;;16.20;99.90;;;;;;4925360;28;36493;-82
2023/04/09 12:04:06;;;;;;;41.00;32.47;;;16.30;99.90;;;;;;4952084;28;39929;-81
2023/04/09 12:06:38;;;;;;;37.90;31.23;;;16.50;99.90;;;;;;4949230;28;38626;-81
2023/04/09 12:09:07;;;;;;;;;;;16.90;99.90;;;;;;4937828;28;38381;-78
2023/04/09 12:11:36;;;;;;;39.00;29.77;;;16.60;99.90;;;;;;4945398;28;36424;-80
2023/04/09 12:14:03;;;;;;;35.85;29.33;;;16.70;99.90;;;;;;4940809;28;38007;-79
2023/04/09 12:16:31;;;;;;;36.58;29.38;;;16.50;99.90;;;;;;4947178;28;39186;-82
2023/04/09 12:19:06;;;;;;;36.85;29.48;;;16.60;99.90;;;;;;4924994;28;38286;-81
2023/04/09 12:22:04;;;;;;;35.55;28.08;;;16.80;99.90;;;;;;4928263;28;48272;-80
2023/04/09 12:24:30;;;;;;;36.30;29.20;;;17.30;99.90;;;;;;4911224;28;48907;-80
2023/04/09 12:26:56;;;;;;;31.67;25.48;;;17.30;99.90;;;;;;4933192;28;37555;-81
2023/04/09 12:29:24;;;;;;;40.05;28.77;;;17.60;99.90;;;;;;4928609;28;38052;-76
2023/04/09 12:31:52;;;;;;;34.13;27.77;;;16.90;99.90;;;;;;4917404;28;36541;-83
2023/04/09 12:34:18;;;;;;;30.15;25.33;;;16.50;99.90;;;;;;4925851;28;39006;-80
2023/04/09 12:36:45;;;;;;;29.38;24.10;;;16.20;99.90;;;;;;4939682;28;38754;-82
2023/04/09 12:39:11;;;;;;;34.30;27.55;;;16.70;99.90;;;;;;4940187;28;39807;-74
2023/04/09 12:41:37;;;;;;;33.15;27.52;;;17.20;99.90;;;;;;4938895;28;37634;-74
2023/04/09 12:44:03;;;;;;;35.50;27.90;;;17.00;99.90;;;;;;4923482;28;38087;-82
2023/04/09 12:46:31;;;;;;;31.85;26.08;;;17.00;99.90;;;;;;4926421;28;37740;-81
2023/04/09 12:48:57;;;;;;;34.10;26.25;;;16.90;99.90;;;;;;4952246;28;38370;-83
2023/04/09 12:51:24;;;;;;;33.50;26.33;;;17.10;99.90;;;;;;4929442;28;36555;-83
2023/04/09 12:53:50;;;;;;;33.88;26.77;;;17.40;99.90;;;;;;4956432;28;39012;-83
2023/04/09 12:56:16;;;;;;;31.15;24.52;;;17.10;99.90;;;;;;4925606;28;39372;-81
2023/04/09 12:58:42;;;;;;;32.50;24.88;;;17.00;99.90;;;;;;4942765;28;38359;-80
2023/04/09 13:01:08;;;;;;;33.55;26.58;;;16.90;99.90;;;;;;4943324;28;38498;-83
2023/04/09 13:03:34;;;;;;;29.55;24.88;;;16.60;99.90;;;;;;4955051;28;38844;-83
2023/04/09 13:06:00;;;;;;;30.85;25.30;;;16.40;99.90;;;;;;4929494;28;37611;-82
2023/04/09 13:08:27;;;;;;;28.95;24.35;;;16.60;99.90;;;;;;4950225;28;47283;-81
2023/04/09 13:10:53;;;;;;;29.90;23.80;;;16.70;99.90;;;;;;4926778;28;37950;-82
2023/04/09 13:13:20;;;;;;;28.40;23.15;;;17.60;99.90;;;;;;4939937;28;37834;-82
2023/04/09 13:15:46;;;;;;;29.20;23.77;;;17.90;99.90;;;;;;4944854;28;39083;-83
2023/04/09 13:18:12;;;;;;;30.80;23.40;;;17.90;99.90;;;;;;4934244;28;37595;-81
2023/04/09 13:20:39;;;;;;;28.15;23.05;;;17.80;99.90;;;;;;4925363;28;36380;-83
2023/04/09 13:23:05;;;;;;;24.63;21.52;;;17.50;99.90;;;;;;4922088;28;37689;-81
2023/04/09 13:25:31;;;;;;;27.23;22.90;;;17.90;99.90;;;;;;4946432;28;38951;-81
2023/04/09 13:27:57;;;;;;;24.23;20.83;;;17.60;99.90;;;;;;4940377;28;38481;-82
2023/04/09 13:30:26;;;;;;;30.73;24.17;;;17.50;99.90;;;;;;4920227;28;37357;-82
2023/04/09 13:32:52;;;;;;;29.23;23.52;;;17.40;99.90;;;;;;4955686;28;37433;-82
2023/04/09 13:35:18;;;;;;;24.67;21.30;;;17.00;99.90;;;;;;4933731;28;37820;-83
2023/04/09 13:37:45;;;;;;;27.73;22.50;;;17.00;99.90;;;;;;4948583;28;38366;-83
2023/04/09 13:40:11;;;;;;;27.60;22.70;;;16.90;99.90;;;;;;4929514;28;36281;-84
2023/04/09 13:42:37;;;;;;;26.08;20.88;;;16.60;99.90;;;;;;4922628;28;39024;-84
2023/04/09 13:45:04;;;;;;;26.23;20.85;;;16.60;99.90;;;;;;4935344;28;38902;-76
2023/04/09 13:47:30;;;;;;;24.80;20.52;;;16.80;99.90;;;;;;4949847;28;39470;-78
2023/04/09 13:49:56;;;;;;;26.50;20.90;;;16.90;99.90;;;;;;4930242;28;36690;-78
2023/04/09 13:52:23;;;;;;;21.30;19.00;;;17.20;99.90;;;;;;4932825;28;37353;-78
2023/04/09 13:54:52;;;;;;;29.33;21.40;;;17.30;99.90;;;;;;4945431;28;38982;-77
2023/04/09 13:57:18;;;;;;;25.40;19.67;;;16.80;99.90;;;;;;4929286;28;37487;-77
2023/04/09 13:59:44;;;;;;;23.80;19.30;;;16.50;99.90;;;;;;4938416;28;38085;-78
2023/04/09 14:02:10;;;;;;;24.17;20.00;;;16.50;99.90;;;;;;4928536;28;37783;-78
2023/04/09 14:04:36;;;;;;;23.73;18.20;;;16.90;99.90;;;;;;4962721;28;39557;-78
2023/04/09 14:07:03;;;;;;;25.50;19.75;;;17.90;99.90;;;;;;4933485;28;37557;-78
2023/04/09 14:09:29;;;;;;;24.00;18.75;;;18.20;99.90;;;;;;4953512;28;48904;-78
2023/04/09 14:11:56;;;;;;;21.02;17.40;;;18.40;99.90;;;;;;4940259;28;37571;-77
2023/04/09 14:14:22;;;;;;;24.83;18.70;;;18.50;99.90;;;;;;4945921;28;38789;-76
2023/04/09 14:16:54;;;;;;;23.95;17.98;;;18.40;99.90;;;;;;4930291;28;38266;-78
2023/04/09 14:19:21;;;;;;;25.75;19.25;;;18.30;99.90;;;;;;4928182;28;36408;-76
2023/04/09 14:21:47;;;;;;;25.02;18.85;;;18.10;99.90;;;;;;4932069;28;37590;-76
2023/04/09 14:24:14;;;;;;;21.20;17.08;;;18.20;99.90;;;;;;4929349;28;38401;-76
2023/04/09 14:26:40;;;;;;;18.17;16.27;;;18.00;99.90;;;;;;4935247;28;37235;-77
2023/04/09 14:29:06;;;;;;;21.08;16.23;;;18.20;99.90;;;;;;4950802;28;38628;-79
2023/04/09 14:31:33;;;;;;;20.08;15.93;;;17.70;99.90;;;;;;4928209;28;37933;-78
2023/04/09 14:33:59;;;;;;;20.95;16.02;;;17.00;99.90;;;;;;4938094;28;37634;-78
2023/04/09 14:36:26;;;;;;;18.55;13.98;;;17.30;99.90;;;;;;4930013;28;37275;-79
2023/04/09 14:38:52;;;;;;;17.38;14.88;;;17.80;99.90;;;;;;4923057;28;36607;-76
2023/04/09 14:41:18;;;;;;;16.27;13.48;;;18.00;99.90;;;;;;4938195;28;38703;-77
2023/04/09 14:43:44;;;;;;;14.48;12.93;;;17.70;99.90;;;;;;4922655;28;37776;-80
2023/04/09 14:46:10;;;;;;;16.55;13.93;;;17.70;99.90;;;;;;4919675;28;38152;-81
2023/04/09 14:48:38;;;;;;;16.20;14.50;;;17.30;99.90;;;;;;4920698;28;36579;-81
2023/04/09 14:51:05;;;;;;;16.20;13.82;;;17.10;99.90;;;;;;4932420;28;39035;-78
2023/04/09 14:53:31;;;;;;;15.38;13.68;;;17.20;99.90;;;;;;4938336;28;39258;-78
2023/04/09 14:55:57;;;;;;;15.55;13.85;;;17.10;99.90;;;;;;4930106;28;37902;-79
2023/04/09 14:58:26;;;;;;;14.77;12.80;;;17.40;99.90;;;;;;4925144;28;36004;-79
2023/04/09 15:00:52;;;;;;;16.63;13.40;;;17.50;99.90;;;;;;4927050;28;37666;-80
2023/04/09 15:03:18;;;;;;;14.25;11.18;;;17.40;99.90;;;;;;4936721;28;38600;-79
2023/04/09 15:05:44;;;;;;;13.75;11.73;;;17.10;99.90;;;;;;4944854;28;38294;-79
2023/04/09 15:08:12;;;;;;;14.82;12.18;;;17.10;99.90;;;;;;4925572;28;36487;-79
2023/04/09 15:10:38;;;;;;;14.50;11.88;;;16.90;99.90;;;;;;4926249;28;39040;-78
2023/04/09 15:13:04;;;;;;;15.02;12.68;;;16.40;99.90;;;;;;4925232;28;37911;-79
2023/04/09 15:15:30;;;;;;;15.52;12.85;;;16.60;99.90;;;;;;4930513;28;37578;-81
2023/04/09 15:17:59;;;;;;;17.08;12.45;;;16.50;99.90;;;;;;4926183;28;36556;-80
2023/04/09 15:20:25;;;;;;;15.60;12.35;;;16.40;99.90;;;;;;4935370;28;39539;-81
2023/04/09 15:22:51;;;;;;;13.60;11.43;;;16.50;99.90;;;;;;4916646;28;36753;-80
2023/04/09 15:25:17;;;;;;;15.27;13.02;;;16.50;99.90;;;;;;4930559;28;38100;-79
2023/04/09 15:27:45;;;;;;;15.68;12.43;;;16.40;99.90;;;;;;4936137;28;36488;-80
2023/04/09 15:30:11;;;;;;;13.52;11.10;;;16.40;99.90;;;;;;4939256;28;39870;-80
2023/04/09 15:32:37;;;;;;;14.30;12.23;;;16.80;99.90;;;;;;4946672;28;38980;-80
2023/04/09 15:35:04;;;;;;;14.52;11.45;;;16.50;99.90;;;;;;4923533;28;35826;-80
2023/04/09 15:37:30;;;;;;;13.77;11.30;;;16.50;99.90;;;;;;4926662;28;47355;-80
2023/04/09 15:39:56;;;;;;;14.20;11.20;;;16.50;99.90;;;;;;4951207;28;39534;-80
2023/04/09 15:42:22;;;;;;;12.07;10.82;;;16.60;99.90;;;;;;4933678;28;39433;-79
2023/04/09 15:44:49;;;;;;;14.48;11.50;;;16.70;99.90;;;;;;4920047;28;38341;-76
2023/04/09 15:47:15;;;;;;;13.18;11.02;;;16.70;99.90;;;;;;4932924;28;36370;-77
2023/04/09 15:49:41;;;;;;;12.45;9.82;;;16.80;99.90;;;;;;4922173;28;37927;-79
2023/04/09 15:52:07;;;;;;;14.10;11.15;;;16.80;99.90;;;;;;4928130;28;38089;-79
2023/04/09 15:54:34;;;;;;;17.63;10.40;;;16.70;99.90;;;;;;4925865;28;35901;-76
2023/04/09 15:57:00;;;;;;;14.00;10.90;;;16.80;99.90;;;;;;4919209;28;36713;-79
2023/04/09 15:59:26;;;;;;;13.63;11.02;;;16.80;99.90;;;;;;4938761;28;38513;-78
2023/04/09 16:01:52;;;;;;;12.15;10.40;;;16.70;99.90;;;;;;4940199;28;38898;-78
2023/04/09 16:04:19;;;;;;;13.40;11.10;;;16.60;99.90;;;;;;4927538;28;38789;-78
2023/04/09 16:06:45;;;;;;;13.02;10.10;;;16.50;99.90;;;;;;4927307;28;36676;-77
2023/04/09 16:09:11;;;;;;;13.23;10.13;;;16.30;99.90;;;;;;4923654;28;38076;-77
2023/04/09 16:11:37;;;;;;;12.43;10.05;;;16.20;99.90;;;;;;4922554;28;37993;-76
2023/04/09 16:14:03;;;;;;;11.80;9.18;;;16.20;99.90;;;;;;4943769;28;39556;-76
2023/04/09 16:16:29;;;;;;;14.30;10.65;;;16.20;99.90;;;;;;4930255;28;36680;-76
2023/04/09 16:18:55;;;;;;;11.70;9.95;;;16.10;99.90;;;;;;4926274;28;37449;-77
2023/04/09 16:21:21;;;;;;;12.45;9.95;;;16.00;99.90;;;;;;4952234;28;39459;-75
2023/04/09 16:23:47;;;;;;;12.55;9.20;;;15.80;99.90;;;;;;4933072;28;38712;-75
2023/04/09 16:26:14;;;;;;;11.23;9.38;;;15.90;99.90;;;;;;4929096;28;36321;-76
2023/04/09 16:28:40;;;;;;;10.38;8.60;;;16.00;99.90;;;;;;4939648;28;38986;-74
2023/04/09 16:31:06;;;;;;;9.85;8.48;;;16.20;99.90;;;;;;4940159;28;39092;-75
2023/04/09 16:33:35;;;;;;;9.85;8.38;;;16.30;99.90;;;;;;4946476;28;38283;-75
2023/04/09 16:36:01;;;;;;;12.00;8.60;;;16.20;99.90;;;;;;4954531;28;36682;-74
2023/04/09 16:38:29;;;;;;;12.18;9.52;;;16.20;99.90;;;;;;4942472;28;49426;-75
2023/04/09 16:40:55;;;;;;;14.63;9.40;;;16.20;99.90;;;;;;4925549;28;38881;-74
2023/04/09 16:43:22;;;;;;;12.25;9.48;;;16.20;99.90;;;;;;4927017;28;38916;-74
2023/04/09 16:45:48;;;;;;;12.18;8.68;;;16.20;99.90;;;;;;4939795;28;38344;-74
2023/04/09 16:48:14;;;;;;;12.10;8.88;;;16.20;99.90;;;;;;4944867;28;38402;-75
2023/04/09 16:50:41;;;;;;;10.30;8.30;;;16.10;99.90;;;;;;4941632;28;39106;-78
2023/04/09 16:53:07;;;;;;;9.38;7.80;;;16.00;99.90;;;;;;4926138;28;38705;-73
2023/04/09 16:55:34;;;;;;;9.38;7.53;;;16.10;99.90;;;;;;4941379;28;38000;-75
2023/04/09 16:58:00;;;;;;;9.93;8.20;;;16.10;99.90;;;;;;4950186;28;40203;-76
2023/04/09 17:00:26;;;;;;;10.75;8.68;;;16.10;99.90;;;;;;4937127;28;47372;-75
2023/04/09 17:02:54;;;;;;;9.38;7.75;;;16.10;99.90;;;;;;4941171;28;38222;-76
2023/04/09 17:05:21;;;;;;;10.73;8.10;;;16.10;99.90;;;;;;4947170;28;37080;-75
2023/04/09 17:07:47;;;;;;;10.13;7.47;;;16.10;99.90;;;;;;4924753;28;39519;-75
2023/04/09 17:10:14;;;;;;;10.82;8.27;;;16.10;99.90;;;;;;4924741;28;38511;-75
2023/04/09 17:12:41;;;;;;;10.52;7.53;;;16.10;99.90;;;;;;4944389;28;20055;-77
2023/04/09 17:15:08;;;;;;;10.00;7.38;;;16.10;99.90;;;;;;4946022;28;38618;-79
2023/04/09 17:17:35;;;;;;;9.07;7.22;;;16.10;99.90;;;;;;4919225;28;38890;-78
2023/04/09 17:20:01;;;;;;;9.77;7.75;;;16.10;99.90;;;;;;4946066;28;39839;-77
2023/04/09 17:22:27;;;;;;;9.20;7.22;;;16.10;99.90;;;;;;4927285;28;39758;-78
2023/04/09 17:24:53;;;;;;;8.73;6.95;;;16.10;99.90;;;;;;4950488;28;37048;-79
2023/04/09 17:27:19;;;;;;;8.18;6.93;;;16.20;99.90;;;;;;4943443;28;39559;-77
2023/04/09 17:29:46;;;;;;;9.07;7.47;;;16.10;99.90;;;;;;4954794;28;38991;-78
2023/04/09 17:32:12;;;;;;;9.93;7.45;;;16.00;99.90;;;;;;4934266;28;37164;-79
2023/04/09 17:34:38;;;;;;;8.68;7.35;;;15.80;99.90;;;;;;4934668;28;36582;-79
2023/04/09 17:37:04;;;;;;;8.15;7.15;;;15.70;99.90;;;;;;4946028;28;39309;-79
2023/04/09 17:39:30;;;;;;;9.52;8.00;;;15.50;99.90;;;;;;4930914;28;37625;-79
2023/04/09 17:41:57;;;;;;;10.18;8.40;;;15.40;99.90;;;;;;4940195;28;39144;-77
2023/04/09 17:44:24;;;;;;;13.98;8.95;;;15.20;99.90;;;;;;4947848;28;37394;-77
2023/04/09 17:46:50;;;;;;;10.00;8.02;;;15.10;99.90;;;;;;4950291;28;38988;-78
2023/04/09 17:49:16;;;;;;;10.35;8.70;;;15.00;99.90;;;;;;4916060;28;40065;-80
2023/04/09 17:51:43;;;;;;;12.63;8.35;;;14.90;99.90;;;;;;4924651;28;37736;-79
2023/04/09 17:54:09;;;;;;;11.55;8.82;;;14.70;99.90;;;;;;4926481;28;37545;-76
2023/04/09 17:56:37;;;;;;;13.90;9.02;;;14.60;99.90;;;;;;4928774;28;37598;-76
2023/04/09 17:59:04;;;;;;;9.95;8.63;;;14.50;99.90;;;;;;4937234;28;37292;-77